createdAt,value
2018-05-10T00:00:49.165Z,19.09
2018-05-10T00:01:59.257Z,19.19
2018-05-10T00:03:09.077Z,19.17
2018-05-10T00:04:19.213Z,19.23
2018-05-10T00:05:29.304Z,19.07
2018-05-10T00:06:39.121Z,19.12
2018-05-10T00:07:49.163Z,19.07
2018-05-10T00:08:59.379Z,19.12
2018-05-10T00:10:09.245Z,19.05
2018-05-10T00:11:19.318Z,18.99
2018-05-10T00:12:29.415Z,18.97
2018-05-10T00:13:39.495Z,18.97
2018-05-10T00:14:49.325Z,18.99
2018-05-10T00:15:59.472Z,18.94
2018-05-10T00:17:09.567Z,19.07
2018-05-10T00:18:19.644Z,19.09
2018-05-10T00:19:29.470Z,19.13
2018-05-10T00:20:39.542Z,19.06
2018-05-10T00:21:49.667Z,18.99
2018-05-10T00:22:59.465Z,18.97
2018-05-10T00:24:09.536Z,18.91
2018-05-10T00:25:19.631Z,18.93
2018-05-10T00:26:29.781Z,18.9
2018-05-10T00:27:39.918Z,18.86
2018-05-10T00:28:50.008Z,18.89
2018-05-10T00:30:00.089Z,18.9
2018-05-10T00:31:09.894Z,18.93
2018-05-10T00:32:19.963Z,18.89
2018-05-10T00:33:30.091Z,18.86
2018-05-10T00:34:40.149Z,18.81
2018-05-10T00:35:50.237Z,18.78
2018-05-10T00:37:00.316Z,18.82
2018-05-10T00:38:10.383Z,18.81
2018-05-10T00:39:20.274Z,18.75
2018-05-10T00:40:30.341Z,18.76
2018-05-10T00:41:40.161Z,18.78
2018-05-10T00:42:50.231Z,18.72
2018-05-10T00:44:00.293Z,18.72
2018-05-10T00:45:10.444Z,18.69
2018-05-10T00:46:20.255Z,18.72
2018-05-10T00:47:30.070Z,18.65
2018-05-10T00:48:39.873Z,18.59
2018-05-10T00:49:49.951Z,18.72
2018-05-10T00:51:00.065Z,18.63
2018-05-10T00:52:09.994Z,18.57
2018-05-10T00:53:20.076Z,18.53
2018-05-10T00:54:29.625Z,18.47
2018-05-10T00:55:39.435Z,18.44
2018-05-10T00:56:49.542Z,18.5
2018-05-10T00:57:59.370Z,18.54
2018-05-10T00:59:09.453Z,18.5
2018-05-10T01:00:19.543Z,18.57
2018-05-10T01:01:29.622Z,18.51
2018-05-10T01:02:39.714Z,18.56
2018-05-10T01:03:49.270Z,18.54
2018-05-10T01:04:59.686Z,18.53
2018-05-10T01:06:09.756Z,18.57
2018-05-10T01:07:19.846Z,18.61
2018-05-10T01:08:29.700Z,18.65
2018-05-10T01:09:39.514Z,18.63
2018-05-10T01:10:49.606Z,18.56
2018-05-10T01:11:59.704Z,18.59
2018-05-10T01:13:09.532Z,18.59
2018-05-10T01:14:19.381Z,18.44
2018-05-10T01:15:28.934Z,18.5
2018-05-10T01:16:38.999Z,18.42
2018-05-10T01:17:49.097Z,18.44
2018-05-10T01:18:58.908Z,18.45
2018-05-10T01:20:08.519Z,18.34
2018-05-10T01:21:18.587Z,18.41
2018-05-10T01:22:28.125Z,18.42
2018-05-10T01:23:37.912Z,18.31
2018-05-10T01:24:47.993Z,18.27
2018-05-10T01:25:57.862Z,18.21
2018-05-10T01:27:07.947Z,18.21
2018-05-10T01:28:17.769Z,18.19
2018-05-10T01:29:27.873Z,18.21
2018-05-10T01:30:37.686Z,18.21
2018-05-10T01:31:47.821Z,18.23
2018-05-10T01:32:57.917Z,18.31
2018-05-10T01:34:07.464Z,18.19
2018-05-10T01:35:17.558Z,18.19
2018-05-10T01:36:27.381Z,18.26
2018-05-10T01:37:37.462Z,18.2
2018-05-10T01:38:47.277Z,18.2
2018-05-10T01:39:57.102Z,18.13
2018-05-10T01:41:06.918Z,18.14
2018-05-10T01:42:16.994Z,18.13
2018-05-10T01:43:26.861Z,18.19
2018-05-10T01:44:36.942Z,18.14
2018-05-10T01:45:46.517Z,18.14
2018-05-10T01:46:56.603Z,18.16
2018-05-10T01:48:06.398Z,18.16
2018-05-10T01:49:16.468Z,18.13
2018-05-10T01:50:26.272Z,18.1
2018-05-10T01:51:36.408Z,18.05
2018-05-10T01:52:46.505Z,17.99
2018-05-10T01:53:56.589Z,17.98
2018-05-10T01:55:06.397Z,18.01
2018-05-10T01:56:16.215Z,18.01
2018-05-10T01:57:25.761Z,17.96
2018-05-10T01:58:35.839Z,18.05
2018-05-10T01:59:45.383Z,18.06
2018-05-10T02:00:55.501Z,17.98
2018-05-10T02:02:05.325Z,17.98
2018-05-10T02:03:15.139Z,18.03
2018-05-10T02:04:25.208Z,18.06
2018-05-10T02:05:35.277Z,18.06
2018-05-10T02:06:45.348Z,18.06
2018-05-10T02:07:55.415Z,18.05
2018-05-10T02:09:05.506Z,18.01
2018-05-10T02:10:15.057Z,17.98
2018-05-10T02:11:24.955Z,17.84
2018-05-10T02:12:35.055Z,17.83
2018-05-10T02:13:45.141Z,17.92
2018-05-10T02:14:55.139Z,17.94
2018-05-10T02:16:05.214Z,17.88
2018-05-10T02:17:15.283Z,17.88
2018-05-10T02:18:25.159Z,17.87
2018-05-10T02:19:35.243Z,17.8
2018-05-10T02:20:45.336Z,17.94
2018-05-10T02:21:55.417Z,17.92
2018-05-10T02:23:05.230Z,17.8
2018-05-10T02:24:15.287Z,17.76
2018-05-10T02:25:25.095Z,17.87
2018-05-10T02:26:35.155Z,17.8
2018-05-10T02:27:45.239Z,17.76
2018-05-10T02:28:55.315Z,17.79
2018-05-10T02:30:05.429Z,17.79
2018-05-10T02:31:15.321Z,17.77
2018-05-10T02:32:25.394Z,17.81
2018-05-10T02:33:35.483Z,17.81
2018-05-10T02:34:45.291Z,17.77
2018-05-10T02:35:55.363Z,17.79
2018-05-10T02:37:05.273Z,17.77
2018-05-10T02:38:15.359Z,17.71
2018-05-10T02:39:25.183Z,17.71
2018-05-10T02:40:34.998Z,17.69
2018-05-10T02:41:44.869Z,17.69
2018-05-10T02:42:54.969Z,17.71
2018-05-10T02:44:05.104Z,17.76
2018-05-10T02:45:15.189Z,17.71
2018-05-10T02:46:25.278Z,17.63
2018-05-10T02:47:35.416Z,17.52
2018-05-10T02:48:45.517Z,17.55
2018-05-10T02:49:55.611Z,17.5
2018-05-10T02:51:05.711Z,17.55
2018-05-10T02:52:15.544Z,17.52
2018-05-10T02:53:25.639Z,17.55
2018-05-10T02:54:35.711Z,17.6
2018-05-10T02:55:46.873Z,17.57
2018-05-10T02:56:57.765Z,17.55
2018-05-10T02:58:07.561Z,17.58
2018-05-10T02:59:17.636Z,17.63
2018-05-10T03:00:27.729Z,17.55
2018-05-10T03:01:37.829Z,17.54
2018-05-10T03:34:21.035Z,15.05
2018-05-10T03:35:31.119Z,15.01
2018-05-10T03:36:41.180Z,15.04
2018-05-10T03:37:51.250Z,15.13
2018-05-10T03:39:01.056Z,15.19
2018-05-10T03:40:10.865Z,15.23
2018-05-10T03:41:20.947Z,15.34
2018-05-10T03:42:31.033Z,15.53
2018-05-10T03:43:41.090Z,15.68
2018-05-10T03:44:51.260Z,15.86
2018-05-10T03:46:01.392Z,16
2018-05-10T03:47:11.464Z,16.26
2018-05-10T03:48:21.539Z,16.32
2018-05-10T03:49:31.617Z,16.55
2018-05-10T03:50:41.428Z,16.74
2018-05-10T03:51:51.537Z,16.85
2018-05-10T03:53:01.065Z,17.13
2018-05-10T03:54:11.137Z,17.13
2018-05-10T03:55:21.202Z,17.38
2018-05-10T03:56:30.757Z,17.43
2018-05-10T03:57:40.868Z,17.55
2018-05-10T03:58:50.944Z,17.68
2018-05-10T04:00:01.033Z,17.83
2018-05-10T04:01:11.140Z,17.9
2018-05-10T04:02:21.227Z,17.98
2018-05-10T04:03:31.308Z,18.11
2018-05-10T04:04:41.407Z,18.21
2018-05-10T04:05:51.217Z,18.31
2018-05-10T04:07:01.093Z,18.26
2018-05-10T04:08:11.159Z,18.38
2018-05-10T04:09:21.281Z,18.47
2018-05-10T04:10:31.397Z,18.53
2018-05-10T04:11:41.479Z,18.6
2018-05-10T04:12:51.566Z,18.63
2018-05-10T04:14:01.640Z,18.79
2018-05-10T04:15:11.710Z,18.89
2018-05-10T04:16:21.265Z,18.89
2018-05-10T04:17:31.327Z,18.99
2018-05-10T04:18:41.133Z,19.23
2018-05-10T04:19:50.929Z,19.72
2018-05-10T04:21:01.049Z,20.38
2018-05-10T04:22:11.138Z,20.81
2018-05-10T04:23:21.048Z,21.11
2018-05-10T04:24:30.861Z,21.41
2018-05-10T04:25:40.676Z,21.64
2018-05-10T04:26:50.756Z,21.68
2018-05-10T04:28:00.864Z,21.55
2018-05-10T04:29:10.967Z,21.41
2018-05-10T04:30:21.012Z,21.21
2018-05-10T04:31:30.558Z,20.98
2018-05-10T04:32:40.632Z,20.96
2018-05-10T04:33:50.707Z,21.04
2018-05-10T04:35:00.766Z,21.53
2018-05-10T04:36:10.590Z,21.52
2018-05-10T04:37:20.646Z,21.49
2018-05-10T04:38:30.711Z,21.41
2018-05-10T04:39:40.794Z,21.46
2018-05-10T04:40:50.875Z,21.45
2018-05-10T04:42:00.953Z,21.59
2018-05-10T04:43:10.783Z,21.8
2018-05-10T04:44:20.646Z,21.94
2018-05-10T04:45:30.769Z,22.24
2018-05-10T04:46:40.665Z,22.46
2018-05-10T04:47:50.745Z,22.64
2018-05-10T04:49:00.839Z,22.91
2018-05-10T04:50:10.947Z,23.1
2018-05-10T04:51:21.026Z,23.29
2018-05-10T04:52:31.108Z,23.5
2018-05-10T04:53:41.212Z,23.63
2018-05-10T04:54:51.230Z,23.75
2018-05-10T04:56:01.453Z,23.89
2018-05-10T04:57:11.543Z,24.26
2018-05-10T04:58:21.354Z,24.58
2018-05-10T04:59:31.426Z,24.74
2018-05-10T05:00:41.525Z,24.67
2018-05-10T05:01:51.616Z,24.97
2018-05-10T05:03:01.688Z,25.39
2018-05-10T05:04:11.221Z,25.69
2018-05-10T05:05:21.295Z,25.86
2018-05-10T05:06:31.351Z,26.11
2018-05-10T05:07:41.581Z,26.32
2018-05-10T05:08:51.912Z,26.45
2018-05-10T05:10:02.087Z,26.67
2018-05-10T05:11:12.161Z,26.91
2018-05-10T05:12:22.241Z,27
2018-05-10T05:13:32.407Z,27.09
2018-05-10T05:14:42.205Z,27.09
2018-05-10T05:15:52.316Z,27.28
2018-05-10T05:17:02.391Z,27.33
2018-05-10T05:18:12.494Z,27.36
2018-05-10T05:19:22.577Z,27.49
2018-05-10T05:20:32.648Z,27.53
2018-05-10T05:21:42.826Z,27.59
2018-05-10T05:22:52.638Z,27.79
2018-05-10T05:24:02.719Z,27.84
2018-05-10T05:25:12.332Z,27.91
2018-05-10T05:26:22.156Z,28.02
2018-05-10T05:27:32.232Z,28.12
2018-05-10T05:28:42.328Z,28.17
2018-05-10T05:29:52.452Z,27.52
2018-05-10T05:31:02.544Z,26.86
2018-05-10T05:32:12.616Z,26.34
2018-05-10T05:33:22.461Z,25.82
2018-05-10T05:34:32.367Z,25.41
2018-05-10T05:35:42.627Z,25.11
2018-05-10T05:36:52.756Z,24.77
2018-05-10T05:38:02.828Z,24.71
2018-05-10T05:39:12.388Z,24.45
2018-05-10T05:40:22.506Z,24.3
2018-05-10T05:41:32.795Z,24.11
2018-05-10T05:42:42.930Z,23.94
2018-05-10T05:43:53.016Z,23.93
2018-05-10T05:45:03.096Z,23.82
2018-05-10T05:46:13.197Z,23.79
2018-05-10T05:47:23.286Z,23.85
2018-05-10T05:48:33.113Z,23.71
2018-05-10T05:49:42.931Z,23.6
2018-05-10T05:50:53.002Z,23.64
2018-05-10T05:52:03.085Z,23.64
2018-05-10T05:53:13.161Z,23.66
2018-05-10T05:54:23.308Z,23.7
2018-05-10T05:55:33.126Z,23.78
2018-05-10T05:56:43.226Z,23.85
2018-05-10T05:57:53.029Z,24.04
2018-05-10T05:59:03.114Z,24.18
2018-05-10T06:00:13.305Z,24.36
2018-05-10T06:01:23.119Z,24.56
2018-05-10T06:02:33.196Z,24.74
2018-05-10T06:03:43.007Z,24.87
2018-05-10T06:04:53.183Z,25.02
2018-05-10T06:06:03.016Z,25.22
2018-05-10T06:07:13.100Z,25.24
2018-05-10T06:08:22.918Z,25.44
2018-05-10T06:09:32.997Z,25.45
2018-05-10T06:10:43.069Z,25.52
2018-05-10T06:11:53.156Z,25.76
2018-05-10T06:13:03.257Z,25.94
2018-05-10T06:14:13.085Z,26.12
2018-05-10T06:15:23.232Z,26.26
2018-05-10T06:16:33.512Z,26.31
2018-05-10T06:17:43.616Z,26.31
2018-05-10T06:18:53.439Z,26.44
2018-05-10T06:20:03.275Z,26.61
2018-05-10T06:21:13.354Z,26.82
2018-05-10T06:22:23.171Z,27.04
2018-05-10T06:23:33.274Z,27.26
2018-05-10T06:24:43.374Z,27.49
2018-05-10T06:25:53.542Z,27.64
2018-05-10T06:27:03.635Z,27.57
2018-05-10T06:28:13.738Z,27.45
2018-05-10T06:29:23.341Z,27.24
2018-05-10T06:30:33.165Z,27.06
2018-05-10T06:31:43.255Z,26.94
2018-05-10T06:32:53.341Z,26.91
2018-05-10T06:34:02.961Z,26.78
2018-05-10T06:35:12.702Z,26.71
2018-05-10T06:36:22.272Z,26.5
2018-05-10T06:37:32.347Z,26.47
2018-05-10T06:38:42.169Z,26.31
2018-05-10T06:39:52.257Z,26.26
2018-05-10T06:41:02.349Z,26.27
2018-05-10T06:42:12.183Z,26.27
2018-05-10T06:43:22.275Z,26.23
2018-05-10T06:44:32.381Z,26.19
2018-05-10T06:45:42.495Z,26.15
2018-05-10T06:46:52.892Z,25.99
2018-05-10T06:48:03.423Z,25.91
2018-05-10T06:49:13.485Z,25.88
2018-05-10T06:50:23.599Z,25.75
2018-05-10T06:51:33.424Z,25.71
2018-05-10T06:52:43.034Z,25.84
2018-05-10T06:53:52.600Z,25.93
2018-05-10T06:55:02.678Z,26.24
2018-05-10T06:56:12.779Z,26.44
2018-05-10T06:57:22.859Z,26.6
2018-05-10T06:58:32.739Z,26.76
2018-05-10T06:59:42.811Z,26.94
2018-05-10T07:00:52.629Z,26.94
2018-05-10T07:02:02.462Z,27.05
2018-05-10T07:03:12.574Z,27.06
2018-05-10T07:04:22.823Z,27.21
2018-05-10T07:05:32.933Z,27.61
2018-05-10T07:06:43.046Z,27.72
2018-05-10T07:07:53.117Z,27.93
2018-05-10T07:09:03.209Z,28.02
2018-05-10T07:10:13.037Z,28.08
2018-05-10T07:11:23.135Z,28.14
2018-05-10T07:12:32.955Z,28.16
2018-05-10T07:13:42.265Z,28.17
2018-05-10T07:14:52.345Z,28.27
2018-05-10T07:16:02.164Z,28.31
2018-05-10T07:17:12.241Z,28.27
2018-05-10T07:18:22.064Z,28.35
2018-05-10T07:19:32.145Z,28.45
2018-05-10T07:20:42.220Z,28.45
2018-05-10T07:21:52.332Z,28.75
2018-05-10T07:23:02.417Z,28.94
2018-05-10T07:24:11.966Z,29.28
2018-05-10T07:25:22.525Z,29.35
2018-05-10T07:26:32.368Z,29.45
2018-05-10T07:27:42.452Z,29.42
2018-05-10T07:28:52.263Z,29.47
2018-05-10T07:30:02.342Z,29.42
2018-05-10T07:31:12.159Z,29.36
2018-05-10T07:32:21.989Z,29.26
2018-05-10T07:33:31.822Z,29.03
2018-05-10T07:34:41.659Z,29.02
2018-05-10T07:35:51.739Z,28.92
2018-05-10T07:37:01.552Z,28.86
2018-05-10T07:38:11.443Z,28.9
2018-05-10T07:39:21.532Z,28.88
2018-05-10T07:40:31.081Z,28.64
2018-05-10T07:41:41.169Z,28.64
2018-05-10T07:42:51.258Z,28.46
2018-05-10T07:44:01.098Z,28.36
2018-05-10T07:45:11.285Z,28.21
2018-05-10T07:46:21.403Z,28.11
2018-05-10T07:47:31.934Z,28.09
2018-05-10T07:48:41.791Z,28.09
2018-05-10T07:49:51.885Z,28.05
2018-05-10T07:51:01.721Z,28.05
2018-05-10T07:52:11.802Z,28.03
2018-05-10T07:53:22.069Z,28.02
2018-05-10T07:54:32.170Z,27.98
2018-05-10T07:55:42.267Z,28.01
2018-05-10T07:56:52.090Z,27.98
2018-05-10T07:58:02.182Z,27.87
2018-05-10T07:59:12.293Z,27.93
2018-05-10T08:00:22.131Z,27.86
2018-05-10T08:01:32.320Z,27.83
2018-05-10T08:02:42.151Z,27.83
2018-05-10T08:03:51.983Z,27.8
2018-05-10T08:05:02.053Z,27.75
2018-05-10T08:06:11.635Z,27.72
2018-05-10T08:07:21.726Z,27.76
2018-05-10T08:08:31.851Z,27.84
2018-05-10T08:09:41.955Z,27.81
2018-05-10T08:10:51.791Z,27.84
2018-05-10T08:12:01.609Z,27.84
2018-05-10T08:13:11.432Z,27.87
2018-05-10T08:14:21.535Z,27.93
2018-05-10T08:15:31.335Z,27.83
2018-05-10T08:16:41.146Z,27.81
2018-05-10T08:17:51.241Z,27.83
2018-05-10T08:19:01.316Z,27.9
2018-05-10T08:20:11.411Z,27.87
2018-05-10T08:21:21.494Z,27.87
2018-05-10T08:22:31.650Z,27.86
2018-05-10T08:23:41.477Z,27.87
2018-05-10T08:24:51.323Z,28.03
2018-05-10T08:26:01.420Z,28.09
2018-05-10T08:27:11.507Z,28.11
2018-05-10T08:28:21.658Z,28.16
2018-05-10T08:29:31.765Z,28.14
2018-05-10T08:30:41.885Z,28.28
2018-05-10T08:31:51.719Z,28.3
2018-05-10T08:33:01.808Z,28.17
2018-05-10T08:34:11.968Z,28.23
2018-05-10T08:35:22.060Z,28.28
2018-05-10T08:36:32.171Z,28.26
2018-05-10T08:37:42.390Z,28.3
2018-05-10T08:38:52.484Z,28.39
2018-05-10T08:40:02.574Z,28.28
2018-05-10T08:41:12.700Z,28.35
2018-05-10T08:42:22.510Z,28.33
2018-05-10T08:43:32.342Z,28.28
2018-05-10T08:44:42.441Z,28.49
2018-05-10T08:45:52.282Z,28.43
2018-05-10T08:47:02.368Z,28.46
2018-05-10T08:48:12.194Z,28.39
2018-05-10T08:49:22.273Z,28.46
2018-05-10T08:50:32.096Z,28.39
2018-05-10T08:51:42.374Z,28.43
2018-05-10T08:52:52.665Z,28.43
2018-05-10T08:54:02.745Z,28.38
2018-05-10T08:55:13.088Z,28.43
2018-05-10T08:56:22.924Z,28.38
2018-05-10T08:57:32.792Z,28.41
2018-05-10T08:58:42.888Z,28.39
2018-05-10T08:59:52.484Z,28.36
2018-05-10T09:01:02.703Z,28.38
2018-05-10T09:02:12.515Z,28.42
2018-05-10T09:03:22.613Z,28.39
2018-05-10T09:04:32.694Z,28.24
2018-05-10T09:05:42.787Z,28.27
2018-05-10T09:06:52.879Z,28.31
2018-05-10T09:08:02.982Z,28.28
2018-05-10T09:09:12.810Z,28.28
2018-05-10T09:10:22.920Z,28.3
2018-05-10T09:11:33.016Z,28.31
2018-05-10T09:12:42.874Z,28.33
2018-05-10T09:13:52.980Z,28.43
2018-05-10T09:15:02.847Z,28.41
2018-05-10T09:16:12.944Z,28.48
2018-05-10T09:17:22.778Z,28.57
2018-05-10T09:18:32.861Z,28.55
2018-05-10T09:19:42.947Z,28.65
2018-05-10T09:20:52.776Z,28.65
2018-05-10T09:22:02.858Z,28.57
2018-05-10T09:23:12.684Z,28.6
2018-05-10T09:24:22.520Z,28.72
2018-05-10T09:25:32.602Z,28.65
2018-05-10T09:26:42.239Z,28.83
2018-05-10T09:27:52.046Z,28.88
2018-05-10T09:29:02.139Z,28.97
2018-05-10T09:30:12.231Z,28.95
2018-05-10T09:31:22.308Z,28.95
2018-05-10T09:32:32.479Z,28.85
2018-05-10T09:33:42.316Z,28.95
2018-05-10T09:34:52.542Z,28.85
2018-05-10T09:36:02.364Z,28.98
2018-05-10T09:37:12.186Z,28.92
2018-05-10T09:38:22.391Z,28.92
2018-05-10T09:39:32.654Z,28.98
2018-05-10T09:40:43.091Z,29.06
2018-05-10T09:41:52.921Z,29.05
2018-05-10T09:43:03.030Z,29.03
2018-05-10T09:44:13.188Z,29.01
2018-05-10T09:45:23.083Z,29.18
2018-05-10T09:46:33.174Z,29.08
2018-05-10T09:47:43.276Z,29.14
2018-05-10T09:48:53.373Z,29.1
2018-05-10T09:50:03.457Z,29.15
2018-05-10T09:51:13.532Z,29.28
2018-05-10T09:52:23.604Z,29.28
2018-05-10T09:53:33.418Z,29.33
2018-05-10T09:54:43.519Z,29.26
2018-05-10T09:55:53.600Z,29.3
2018-05-10T09:57:03.696Z,29.26
2018-05-10T09:58:13.765Z,29.26
2018-05-10T09:59:23.868Z,29.26
2018-05-10T10:00:33.968Z,29.35
2018-05-10T10:01:44.064Z,29.36
2018-05-10T10:02:53.969Z,29.47
2018-05-10T10:04:04.077Z,29.47
2018-05-10T10:05:14.191Z,29.63
2018-05-10T10:06:24.360Z,29.77
2018-05-10T10:07:34.453Z,29.77
2018-05-10T10:08:44.544Z,29.76
2018-05-10T10:09:54.677Z,29.77
2018-05-10T10:11:04.532Z,29.87
2018-05-10T10:12:14.650Z,29.89
2018-05-10T10:13:24.487Z,30
2018-05-10T10:14:34.566Z,29.97
2018-05-10T10:15:44.294Z,30.04
2018-05-10T10:16:54.347Z,30.1
2018-05-10T10:18:04.451Z,30.07
2018-05-10T10:19:14.531Z,30.11
2018-05-10T10:20:24.638Z,30.13
2018-05-10T10:21:34.484Z,30.13
2018-05-10T10:22:44.325Z,30.24
2018-05-10T10:23:54.144Z,30.21
2018-05-10T10:25:03.739Z,30.16
2018-05-10T10:26:14.974Z,30.13
2018-05-10T10:27:26.519Z,30.06
2018-05-10T10:28:36.670Z,30.07
2018-05-10T10:29:46.739Z,30.16
2018-05-10T10:30:56.894Z,30.19
2018-05-10T10:32:06.996Z,30.25
2018-05-10T10:33:17.582Z,30.22
2018-05-10T10:34:28.471Z,30.29
2018-05-10T10:35:39.751Z,30.14
2018-05-10T10:36:50.957Z,30.29
2018-05-10T10:38:02.177Z,30.29
2018-05-10T10:39:13.136Z,30.34
2018-05-10T10:40:23.534Z,30.48
2018-05-10T10:41:33.371Z,30.45
2018-05-10T10:42:43.500Z,30.57
2018-05-10T10:43:53.689Z,30.47
2018-05-10T10:45:03.886Z,30.49
2018-05-10T10:46:13.726Z,30.47
2018-05-10T10:47:23.821Z,30.48
2018-05-10T10:48:34.025Z,30.6
2018-05-10T10:49:43.943Z,30.62
2018-05-10T10:50:53.771Z,30.7
2018-05-10T10:52:03.888Z,30.7
2018-05-10T10:53:14.502Z,30.66
2018-05-10T10:54:24.608Z,30.75
2018-05-10T10:55:34.963Z,30.82
2018-05-10T10:56:45.325Z,30.82
2018-05-10T10:57:55.429Z,30.88
2018-05-10T10:59:05.609Z,30.96
2018-05-10T11:00:15.453Z,31.04
2018-05-10T11:01:25.795Z,31.1
2018-05-10T11:02:35.912Z,31
2018-05-10T11:03:45.801Z,31.07
2018-05-10T11:04:56.139Z,31.13
2018-05-10T11:06:06.257Z,31.23
2018-05-10T11:07:16.065Z,31.31
2018-05-10T11:08:26.201Z,31.18
2018-05-10T11:09:36.809Z,31.13
2018-05-10T11:10:47.440Z,31
2018-05-10T11:11:58.015Z,30.93
2018-05-10T11:13:08.629Z,30.85
2018-05-10T11:14:18.760Z,30.77
2018-05-10T11:15:29.635Z,30.7
2018-05-10T11:16:40.123Z,30.49
2018-05-10T11:17:50.458Z,30.45
2018-05-10T11:19:01.065Z,30.32
2018-05-10T11:20:11.190Z,30.28
2018-05-10T11:21:21.314Z,30.18
2018-05-10T11:22:32.173Z,29.98
2018-05-10T11:23:43.015Z,29.94
2018-05-10T11:24:53.655Z,29.84
2018-05-10T11:26:03.798Z,29.79
2018-05-10T11:27:13.970Z,29.75
2018-05-10T11:28:24.225Z,29.72
2018-05-10T11:29:34.321Z,29.69
2018-05-10T11:30:44.150Z,29.69
2018-05-10T11:31:53.979Z,29.77
2018-05-10T11:33:04.267Z,29.89
2018-05-10T11:34:14.470Z,30.06
2018-05-10T11:35:24.575Z,30.21
2018-05-10T11:36:34.689Z,30.7
2018-05-10T11:37:44.842Z,30.97
2018-05-10T11:38:54.700Z,31.3
2018-05-10T11:40:04.842Z,31.43
2018-05-10T11:41:14.680Z,31.58
2018-05-10T11:42:23.996Z,31.63
2018-05-10T11:43:33.844Z,31.87
2018-05-10T11:44:43.686Z,31.97
2018-05-10T11:45:53.821Z,32.23
2018-05-10T11:47:03.396Z,32.43
2018-05-10T11:48:13.241Z,32.54
2018-05-10T11:49:23.094Z,32.62
2018-05-10T11:50:33.283Z,32.84
2018-05-10T11:51:43.165Z,32.98
2018-05-10T11:52:53.304Z,33.29
2018-05-10T11:54:03.416Z,33.37
2018-05-10T11:55:13.552Z,33.47
2018-05-10T11:56:23.644Z,33.52
2018-05-10T11:57:33.536Z,33.44
2018-05-10T11:58:43.650Z,33.37
2018-05-10T11:59:53.753Z,33.32
2018-05-10T12:01:03.862Z,32.99
2018-05-10T12:02:14.005Z,32.69
2018-05-10T12:03:24.099Z,32.37
2018-05-10T12:04:34.220Z,32.2
2018-05-10T12:05:44.339Z,32.31
2018-05-10T12:06:54.460Z,31.93
2018-05-10T12:08:04.300Z,31.62
2018-05-10T12:09:14.443Z,31.43
2018-05-10T12:10:24.567Z,31.34
2018-05-10T12:11:34.867Z,31.28
2018-05-10T12:12:44.962Z,31.3
2018-05-10T12:13:55.087Z,31.41
2018-05-10T12:15:05.209Z,31.59
2018-05-10T12:16:15.044Z,31.81
2018-05-10T12:17:25.143Z,31.67
2018-05-10T12:18:35.245Z,31.49
2018-05-10T12:19:45.364Z,31.56
2018-05-10T12:20:55.256Z,31.47
2018-05-10T12:22:05.144Z,31.44
2018-05-10T12:23:15.274Z,31.34
2018-05-10T12:24:25.120Z,31.3
2018-05-10T12:25:34.760Z,31.25
2018-05-10T12:26:45.197Z,31.43
2018-05-10T12:27:55.283Z,31.47
2018-05-10T12:29:05.417Z,31.7
2018-05-10T12:30:15.509Z,31.9
2018-05-10T12:31:25.647Z,32.25
2018-05-10T12:32:35.753Z,32.38
2018-05-10T12:33:45.870Z,32.49
2018-05-10T12:34:55.722Z,32.52
2018-05-10T12:36:05.584Z,32.49
2018-05-10T12:37:15.691Z,32.42
2018-05-10T12:38:25.808Z,32.28
2018-05-10T12:39:35.670Z,32.19
2018-05-10T12:40:45.257Z,32.42
2018-05-10T12:41:55.376Z,32.5
2018-05-10T12:43:05.577Z,32.52
2018-05-10T12:44:15.266Z,32.61
2018-05-10T12:45:25.351Z,32.86
2018-05-10T12:46:35.448Z,33.01
2018-05-10T12:47:45.803Z,33.21
2018-05-10T12:48:55.938Z,33.31
2018-05-10T12:50:05.775Z,33.46
2018-05-10T12:51:15.858Z,33.58
2018-05-10T12:52:25.947Z,33.74
2018-05-10T12:53:36.056Z,33.58
2018-05-10T12:54:46.127Z,33.71
2018-05-10T12:55:56.267Z,33.77
2018-05-10T12:57:06.115Z,33.66
2018-05-10T12:58:16.226Z,33.44
2018-05-10T12:59:25.798Z,33.28
2018-05-10T13:00:35.885Z,33.17
2018-05-10T13:01:45.737Z,33.01
2018-05-10T13:02:55.673Z,32.91
2018-05-10T13:04:05.995Z,32.68
2018-05-10T13:05:16.079Z,32.47
2018-05-10T13:06:26.169Z,32.12
2018-05-10T13:07:36.259Z,32
2018-05-10T13:08:46.078Z,31.88
2018-05-10T13:09:56.184Z,31.88
2018-05-10T13:11:06.879Z,31.87
2018-05-10T13:12:17.045Z,31.97
2018-05-10T13:13:27.446Z,32.01
2018-05-10T13:14:37.572Z,32.05
2018-05-10T13:15:47.662Z,32.13
2018-05-10T13:16:57.478Z,32.15
2018-05-10T13:18:07.319Z,32.24
2018-05-10T13:19:17.421Z,32.37
2018-05-10T13:20:27.665Z,32.49
2018-05-10T13:21:37.872Z,32.64
2018-05-10T13:22:48.034Z,32.83
2018-05-10T13:23:58.138Z,33.13
2018-05-10T13:25:08.248Z,33.46
2018-05-10T13:26:18.344Z,33.58
2018-05-10T13:27:28.754Z,33.71
2018-05-10T13:28:38.865Z,33.68
2018-05-10T13:29:48.972Z,33.71
2018-05-10T13:30:58.802Z,33.8
2018-05-10T13:32:08.890Z,33.84
2018-05-10T13:33:18.693Z,33.89
2018-05-10T13:34:28.523Z,33.89
2018-05-10T13:35:38.082Z,33.97
2018-05-10T13:36:47.665Z,34.03
2018-05-10T13:37:57.520Z,34.02
2018-05-10T13:39:07.342Z,34.08
2018-05-10T13:40:16.902Z,34.06
2018-05-10T13:41:26.734Z,33.93
2018-05-10T13:42:36.562Z,33.99
2018-05-10T13:43:46.415Z,33.96
2018-05-10T13:44:56.249Z,33.92
2018-05-10T13:46:06.598Z,33.83
2018-05-10T13:47:17.105Z,33.69
2018-05-10T13:48:27.086Z,33.66
2018-05-10T13:49:37.172Z,33.89
2018-05-10T13:50:47.272Z,34.15
2018-05-10T13:51:57.108Z,34.22
2018-05-10T13:53:07.516Z,34.4
2018-05-10T13:54:17.412Z,34.37
2018-05-10T13:55:27.234Z,34.33
2018-05-10T13:56:37.069Z,34.4
2018-05-10T13:57:47.174Z,34.33
2018-05-10T13:58:57.443Z,34.21
2018-05-10T14:00:07.678Z,34.12
2018-05-10T14:01:17.772Z,34.15
2018-05-10T14:02:27.978Z,34.14
2018-05-10T14:03:38.091Z,34.03
2018-05-10T14:04:48.184Z,34.08
2018-05-10T14:05:58.108Z,33.89
2018-05-10T14:07:08.195Z,33.62
2018-05-10T14:08:18.045Z,33.74
2018-05-10T14:09:27.903Z,33.84
2018-05-10T14:10:37.744Z,33.77
2018-05-10T14:11:47.630Z,33.61
2018-05-10T14:12:57.462Z,33.58
2018-05-10T14:14:07.309Z,33.5
2018-05-10T14:15:17.164Z,33.44
2018-05-10T14:16:27.062Z,32.99
2018-05-10T14:17:37.048Z,32.64
2018-05-10T14:18:46.879Z,32.47
2018-05-10T14:19:56.979Z,32.64
2018-05-10T14:21:07.061Z,32.65
2018-05-10T14:22:16.895Z,32.46
2018-05-10T14:23:26.738Z,32.1
2018-05-10T14:24:36.582Z,32.05
2018-05-10T14:25:46.690Z,32.08
2018-05-10T14:26:56.783Z,32.15
2018-05-10T14:28:06.908Z,32.13
2018-05-10T14:29:17.037Z,32.3
2018-05-10T14:30:27.471Z,32.31
2018-05-10T14:31:37.565Z,32.39
2018-05-10T14:32:47.767Z,32.38
2018-05-10T14:33:57.688Z,32.43
2018-05-10T14:35:07.844Z,32.34
2018-05-10T14:36:18.013Z,32.38
2018-05-10T14:37:27.838Z,32.13
2018-05-10T14:38:37.934Z,32.08
2018-05-10T14:39:48.067Z,32.06
2018-05-10T14:40:57.899Z,31.94
2018-05-10T14:42:07.992Z,31.87
2018-05-10T14:43:18.099Z,31.86
2018-05-10T14:44:28.198Z,31.41
2018-05-10T14:45:38.300Z,31.1
2018-05-10T14:46:48.220Z,30.81
2018-05-10T14:47:58.418Z,30.44
2018-05-10T14:49:08.277Z,30.13
2018-05-10T14:50:18.412Z,30.02
2018-05-10T14:51:28.597Z,29.77
2018-05-10T14:52:38.488Z,29.65
2018-05-10T14:53:48.575Z,29.47
2018-05-10T14:54:58.659Z,29.58
2018-05-10T14:56:08.771Z,29.69
2018-05-10T14:57:18.927Z,29.63
2018-05-10T14:58:29.077Z,29.94
2018-05-10T14:59:38.973Z,30.03
2018-05-10T15:00:49.203Z,30.16
2018-05-10T15:01:59.315Z,30.31
2018-05-10T15:03:09.413Z,30.35
2018-05-10T15:04:19.531Z,30.42
2018-05-10T15:05:29.628Z,30.54
2018-05-10T15:06:39.749Z,30.54
2018-05-10T15:07:49.862Z,30.7
2018-05-10T15:08:59.978Z,30.77
2018-05-10T15:10:10.077Z,30.73
2018-05-10T15:11:20.166Z,30.81
2018-05-10T15:12:29.995Z,30.78
2018-05-10T15:13:40.078Z,30.84
2018-05-10T15:14:50.187Z,30.91
2018-05-10T15:16:00.066Z,30.91
2018-05-10T15:17:10.168Z,30.93
2018-05-10T15:18:20.279Z,30.99
2018-05-10T15:19:30.098Z,30.97
2018-05-10T15:20:40.178Z,30.89
2018-05-10T15:21:50.304Z,30.62
2018-05-10T15:23:00.411Z,30.29
2018-05-10T15:24:10.500Z,30.31
2018-05-10T15:25:20.689Z,30.18
2018-05-10T15:26:30.792Z,30.1
2018-05-10T15:27:40.958Z,30.09
2018-05-10T15:28:51.064Z,30.18
2018-05-10T15:30:01.185Z,30.18
2018-05-10T15:31:11.317Z,30.14
2018-05-10T15:32:21.430Z,30.13
2018-05-10T15:33:31.597Z,30.04
2018-05-10T15:34:41.697Z,30
2018-05-10T15:35:51.785Z,30.06
2018-05-10T15:37:01.882Z,30.06